createdAt,value
2022-07-30T00:01:42.852Z,1.10
2022-07-30T00:04:10.087Z,1.20
2022-07-30T00:06:37.952Z,1.20
2022-07-30T00:09:04.840Z,1.30
2022-07-30T00:11:31.705Z,1.13
2022-07-30T00:13:58.567Z,0.97
2022-07-30T00:16:25.670Z,1.20
2022-07-30T00:18:52.553Z,1.20
2022-07-30T00:21:20.315Z,1.10
2022-07-30T00:24:04.122Z,1.30
2022-07-30T00:26:31.126Z,1.10
2022-07-30T00:28:58.208Z,1.87
2022-07-30T00:31:25.062Z,1.50
2022-07-30T00:33:51.971Z,1.30
2022-07-30T00:36:18.821Z,1.13
2022-07-30T00:38:45.766Z,1.20
2022-07-30T00:41:13.185Z,1.60
2022-07-30T00:43:43.162Z,1.40
2022-07-30T00:46:10.456Z,1.20
2022-07-30T00:48:37.621Z,1.13
2022-07-30T00:51:04.509Z,1.20
2022-07-30T00:53:31.377Z,1.40
2022-07-30T00:55:58.355Z,1.60
2022-07-30T00:58:25.365Z,1.20
2022-07-30T01:00:52.764Z,1.40
2022-07-30T01:03:20.084Z,1.40
2022-07-30T01:05:47.065Z,1.30
2022-07-30T01:08:13.991Z,1.47
2022-07-30T01:10:41.003Z,1.37
2022-07-30T01:13:08.302Z,1.43
2022-07-30T01:15:35.224Z,1.30
2022-07-30T01:18:05.283Z,1.50
2022-07-30T01:20:55.670Z,1.37
2022-07-30T01:23:32.636Z,1.50
2022-07-30T01:26:04.248Z,1.50
2022-07-30T01:28:35.889Z,1.40
2022-07-30T01:31:05.703Z,1.30
2022-07-30T01:33:37.410Z,1.20
2022-07-30T01:36:07.389Z,1.47
2022-07-30T01:38:36.482Z,1.33
2022-07-30T01:41:07.496Z,1.50
2022-07-30T01:43:35.747Z,1.37
2022-07-30T01:46:04.325Z,1.40
2022-07-30T01:48:35.028Z,1.23
2022-07-30T01:51:07.262Z,1.30
2022-07-30T01:53:37.885Z,1.40
2022-07-30T01:56:05.597Z,1.60
2022-07-30T01:58:39.123Z,1.50
2022-07-30T02:01:07.387Z,1.47
2022-07-30T02:03:35.419Z,1.40
2022-07-30T02:06:09.758Z,1.57
2022-07-30T02:09:11.211Z,1.40
2022-07-30T02:12:02.892Z,1.63
2022-07-30T02:14:47.838Z,1.47
2022-07-30T02:17:20.924Z,1.50
2022-07-30T02:19:51.063Z,1.30
2022-07-30T02:22:20.776Z,1.43
2022-07-30T02:24:52.084Z,1.67
2022-07-30T02:27:25.846Z,1.40
2022-07-30T02:29:55.763Z,1.47
2022-07-30T02:32:24.782Z,1.30
2022-07-30T02:35:00.263Z,1.60
2022-07-30T02:37:37.997Z,1.60
2022-07-30T02:40:14.557Z,1.40
2022-07-30T02:42:43.725Z,1.50
2022-07-30T02:45:11.890Z,1.47
2022-07-30T02:47:42.889Z,1.50
2022-07-30T02:50:10.970Z,1.40
2022-07-30T02:52:41.495Z,1.60
2022-07-30T02:55:11.044Z,1.53
2022-07-30T02:57:43.368Z,1.50
2022-07-30T03:00:12.053Z,1.53
2022-07-30T03:02:40.563Z,1.50
2022-07-30T03:05:11.602Z,1.47
2022-07-30T03:07:40.445Z,1.60
2022-07-30T03:10:08.595Z,1.60
2022-07-30T03:12:37.921Z,1.63
2022-07-30T03:15:05.381Z,1.60
2022-07-30T03:17:38.577Z,1.50
2022-07-30T03:20:09.401Z,1.50
2022-07-30T03:22:44.276Z,1.60
2022-07-30T03:25:18.144Z,1.73
2022-07-30T03:27:46.878Z,1.60
2022-07-30T03:30:14.014Z,1.30
2022-07-30T03:32:42.934Z,1.50
2022-07-30T03:35:16.921Z,1.60
2022-07-30T03:37:44.956Z,1.60
2022-07-30T03:40:13.470Z,1.60
2022-07-30T03:42:40.440Z,1.70
2022-07-30T03:45:08.847Z,1.20
2022-07-30T03:47:38.741Z,1.60
2022-07-30T03:50:08.773Z,1.50
2022-07-30T03:52:40.884Z,1.50
2022-07-30T03:55:09.907Z,1.50
2022-07-30T03:57:37.181Z,1.60
2022-07-30T04:00:12.799Z,1.67
2022-07-30T04:02:47.273Z,1.30
2022-07-30T04:05:15.288Z,1.60
2022-07-30T04:07:45.183Z,1.33
2022-07-30T04:10:13.143Z,1.50
2022-07-30T04:12:40.241Z,1.57
2022-07-30T04:16:35.519Z,1.60
2022-07-30T04:18:01.448Z,1.60
2022-07-30T04:20:34.634Z,1.60
2022-07-30T04:23:02.775Z,1.70
2022-07-30T04:25:30.504Z,1.80
2022-07-30T04:28:03.126Z,1.70
2022-07-30T04:30:33.408Z,1.50
2022-07-30T04:33:00.696Z,1.60
2022-07-30T04:35:50.787Z,1.60
2022-07-30T04:38:16.324Z,1.80
2022-07-30T04:40:43.248Z,1.83
2022-07-30T04:43:10.129Z,1.80
2022-07-30T04:45:39.022Z,2.00
2022-07-30T04:48:06.492Z,1.90
2022-07-30T04:50:35.399Z,1.90
2022-07-30T04:53:03.128Z,1.80
2022-07-30T04:55:31.681Z,1.80
2022-07-30T04:58:01.873Z,1.80
2022-07-30T05:00:32.333Z,1.90
2022-07-30T05:03:02.436Z,1.90
2022-07-30T05:05:32.542Z,1.90
2022-07-30T05:08:01.324Z,1.80
2022-07-30T05:10:28.501Z,2.00
2022-07-30T05:12:55.358Z,1.77
2022-07-30T05:15:22.236Z,1.63
2022-07-30T05:18:03.323Z,1.70
2022-07-30T05:20:30.145Z,1.67
2022-07-30T05:22:58.203Z,1.97
2022-07-30T05:25:25.039Z,2.00
2022-07-30T05:27:52.742Z,1.83
2022-07-30T05:30:19.748Z,1.90
2022-07-30T05:32:52.984Z,1.83
2022-07-30T05:35:20.194Z,2.27
2022-07-30T05:37:49.273Z,1.90
2022-07-30T05:40:16.243Z,1.80
2022-07-30T05:42:43.049Z,1.77
2022-07-30T05:45:10.214Z,1.90
2022-07-30T05:47:37.377Z,2.13
2022-07-30T05:50:05.513Z,2.00
2022-07-30T05:52:33.249Z,1.90
2022-07-30T05:55:00.150Z,1.73
2022-07-30T05:57:27.004Z,1.67
2022-07-30T05:59:53.858Z,1.80
2022-07-30T06:02:24.263Z,2.07
2022-07-30T06:04:52.053Z,1.80
2022-07-30T06:07:19.048Z,1.70
2022-07-30T06:09:45.941Z,1.90
2022-07-30T06:12:12.779Z,2.23
2022-07-30T06:14:39.695Z,1.93
2022-07-30T06:17:06.767Z,1.87
2022-07-30T06:19:33.697Z,2.00
2022-07-30T06:22:06.242Z,1.60
2022-07-30T06:24:34.152Z,1.80
2022-07-30T06:27:01.278Z,2.10
2022-07-30T06:29:28.611Z,2.20
2022-07-30T06:31:55.988Z,1.70
2022-07-30T06:34:22.910Z,1.83
2022-07-30T06:36:50.218Z,1.80
2022-07-30T06:39:57.391Z,1.90
2022-07-30T06:42:04.636Z,1.87
2022-07-30T06:44:31.630Z,1.83
2022-07-30T06:47:00.981Z,2.20
2022-07-30T06:49:33.172Z,2.07
2022-07-30T06:52:00.403Z,1.70
2022-07-30T06:54:27.431Z,1.70
2022-07-30T06:56:54.442Z,1.90
2022-07-30T06:59:21.439Z,1.90
2022-07-30T07:01:49.828Z,1.90
2022-07-30T07:04:16.892Z,2.03
2022-07-30T07:06:43.779Z,1.90
2022-07-30T07:09:11.318Z,2.00
2022-07-30T07:11:38.547Z,2.00
2022-07-30T07:14:05.455Z,2.27
2022-07-30T07:16:32.458Z,2.07
2022-07-30T07:18:59.277Z,2.07
2022-07-30T07:21:26.261Z,2.00
2022-07-30T07:23:53.542Z,1.97
2022-07-30T07:26:20.366Z,2.40
2022-07-30T07:28:47.317Z,2.00
2022-07-30T07:32:05.229Z,2.00
2022-07-30T07:34:01.686Z,2.17
2022-07-30T07:36:28.691Z,1.90
2022-07-30T07:38:55.601Z,2.10
2022-07-30T07:41:22.464Z,2.00
2022-07-30T07:43:49.302Z,2.10
2022-07-30T07:46:17.691Z,2.22
2022-07-30T07:49:01.177Z,2.17
2022-07-30T07:51:48.369Z,2.73
2022-07-30T07:54:21.967Z,2.20
2022-07-30T07:56:52.892Z,2.37
2022-07-30T07:59:35.227Z,2.47
2022-07-30T08:02:08.581Z,2.60
2022-07-30T08:04:36.174Z,5.15
2022-07-30T08:07:04.028Z,2.90
2022-07-30T08:09:44.259Z,2.70
2022-07-30T08:12:16.500Z,2.60
2022-07-30T08:14:43.529Z,2.90
2022-07-30T08:17:11.227Z,2.78
2022-07-30T08:19:38.127Z,2.92
2022-07-30T08:22:05.408Z,3.03
2022-07-30T08:24:33.143Z,2.72
2022-07-30T08:27:00.694Z,2.83
2022-07-30T08:29:30.380Z,3.00
2022-07-30T08:31:57.230Z,3.03
2022-07-30T08:34:25.861Z,3.80
2022-07-30T08:36:52.894Z,3.17
2022-07-30T08:39:19.800Z,3.17
2022-07-30T08:41:48.545Z,3.08
2022-07-30T08:44:18.786Z,3.10
2022-07-30T08:46:47.862Z,3.10
2022-07-30T08:49:15.122Z,3.30
2022-07-30T08:51:42.854Z,2.70
2022-07-30T08:54:10.005Z,4.00
2022-07-30T08:56:37.452Z,2.90
2022-07-30T08:59:04.930Z,2.88
2022-07-30T09:01:31.919Z,3.00
2022-07-30T09:03:58.932Z,3.28
2022-07-30T09:06:25.944Z,3.72
2022-07-30T09:08:53.424Z,2.67
2022-07-30T09:11:20.803Z,2.83
2022-07-30T09:13:48.487Z,2.90
2022-07-30T09:16:24.104Z,2.95
2022-07-30T09:18:53.016Z,2.45
2022-07-30T09:21:25.937Z,2.67
2022-07-30T09:24:06.184Z,2.97
2022-07-30T09:26:51.610Z,2.40
2022-07-30T09:29:23.910Z,2.90
2022-07-30T09:32:02.886Z,3.15
2022-07-30T09:34:40.189Z,3.00
2022-07-30T09:37:10.530Z,2.67
2022-07-30T09:39:41.924Z,2.55
2022-07-30T09:42:26.745Z,2.75
2022-07-30T09:45:08.555Z,2.75
2022-07-30T09:47:37.384Z,2.60
2022-07-30T09:50:10.103Z,2.97
2022-07-30T09:52:44.144Z,2.67
2022-07-30T09:55:35.761Z,2.80
2022-07-30T09:58:08.570Z,2.60
2022-07-30T10:00:37.101Z,2.75
2022-07-30T10:03:32.952Z,2.88
2022-07-30T10:06:01.282Z,2.70
2022-07-30T10:08:46.214Z,2.73
2022-07-30T10:11:24.624Z,2.28
2022-07-30T10:13:59.422Z,2.77
2022-07-30T10:16:29.461Z,3.10
2022-07-30T10:19:02.877Z,2.70
2022-07-30T10:21:32.609Z,3.27
2022-07-30T10:24:04.174Z,2.57
2022-07-30T10:26:35.217Z,2.63
2022-07-30T10:29:02.785Z,2.67
2022-07-30T10:31:49.243Z,2.50
2022-07-30T10:34:23.531Z,2.60
2022-07-30T10:37:01.014Z,2.57
2022-07-30T10:39:37.490Z,3.10
2022-07-30T10:42:25.959Z,2.90
2022-07-30T10:45:27.637Z,2.90
2022-07-30T10:47:56.433Z,2.63
2022-07-30T10:50:28.072Z,2.67
2022-07-30T10:52:58.787Z,3.00
2022-07-30T10:55:39.183Z,2.90
2022-07-30T10:58:09.798Z,3.00
2022-07-30T11:00:57.075Z,3.00
2022-07-30T11:03:40.566Z,3.10
2022-07-30T11:06:24.202Z,3.67
2022-07-30T11:08:51.987Z,3.23
2022-07-30T11:12:15.750Z,3.20
2022-07-30T11:14:12.932Z,2.73
2022-07-30T11:16:39.899Z,3.17
2022-07-30T11:19:56.105Z,3.17
2022-07-30T11:22:25.835Z,3.40
2022-07-30T11:24:53.342Z,3.73
2022-07-30T11:27:50.440Z,3.33
2022-07-30T11:30:17.924Z,3.10
2022-07-30T11:32:48.654Z,3.50
2022-07-30T11:35:17.086Z,3.57
2022-07-30T11:38:00.844Z,4.00
2022-07-30T11:40:34.648Z,3.60
2022-07-30T11:43:19.276Z,3.80
2022-07-30T11:46:10.769Z,4.23
2022-07-30T11:48:43.214Z,4.63
2022-07-30T11:51:10.822Z,3.93
2022-07-30T11:53:37.773Z,5.17
2022-07-30T11:56:04.819Z,4.50
2022-07-30T11:58:34.680Z,3.83
2022-07-30T12:01:09.021Z,4.13
2022-07-30T12:03:41.337Z,3.90
2022-07-30T12:06:18.094Z,4.00
2022-07-30T12:08:48.716Z,4.00
2022-07-30T12:11:15.692Z,4.10
2022-07-30T12:13:46.128Z,3.80
2022-07-30T12:16:17.467Z,3.53
2022-07-30T12:18:45.679Z,3.87
2022-07-30T12:21:13.623Z,5.00
2022-07-30T12:23:43.369Z,4.30
2022-07-30T12:26:22.425Z,4.20
2022-07-30T12:28:49.646Z,4.20
2022-07-30T12:31:16.981Z,4.17
2022-07-30T12:33:43.838Z,4.37
2022-07-30T12:36:23.186Z,3.90
2022-07-30T12:38:52.447Z,4.13
2022-07-30T12:41:19.316Z,4.50
2022-07-30T12:43:56.346Z,4.30
2022-07-30T12:46:26.678Z,4.23
2022-07-30T12:48:54.016Z,4.00
2022-07-30T12:51:24.205Z,3.97
2022-07-30T12:53:52.874Z,3.87
2022-07-30T12:56:28.050Z,4.00
2022-07-30T12:58:56.727Z,3.80
2022-07-30T13:01:42.560Z,3.87
2022-07-30T13:04:10.452Z,3.80
2022-07-30T13:06:38.163Z,3.93
2022-07-30T13:09:05.290Z,3.63
2022-07-30T13:11:39.805Z,4.13
2022-07-30T13:14:07.589Z,4.37
2022-07-30T13:16:36.015Z,3.83
2022-07-30T13:19:07.152Z,3.60
2022-07-30T13:21:34.802Z,3.60
2022-07-30T13:24:02.305Z,3.97
2022-07-30T13:26:31.935Z,4.00
2022-07-30T13:29:01.834Z,3.90
2022-07-30T13:31:29.315Z,3.50
2022-07-30T13:34:09.717Z,3.93
2022-07-30T13:36:36.593Z,3.73
2022-07-30T13:39:03.912Z,4.20
2022-07-30T13:41:30.855Z,3.90
2022-07-30T13:43:57.736Z,3.77
2022-07-30T13:46:24.589Z,4.30
2022-07-30T13:48:51.558Z,3.97
2022-07-30T13:51:18.822Z,4.07
2022-07-30T13:53:45.749Z,4.47
2022-07-30T13:56:13.222Z,4.40
2022-07-30T13:58:40.665Z,4.70
2022-07-30T14:01:07.704Z,4.80
2022-07-30T14:03:35.403Z,4.70
2022-07-30T14:06:10.645Z,4.87
2022-07-30T14:08:38.695Z,4.60
2022-07-30T14:11:05.616Z,5.07
2022-07-30T14:13:32.434Z,4.83
2022-07-30T14:15:59.461Z,4.80
2022-07-30T14:18:26.329Z,4.80
2022-07-30T14:20:53.833Z,4.87
2022-07-30T14:23:21.026Z,4.93
2022-07-30T14:25:47.949Z,4.57
2022-07-30T14:28:15.384Z,4.40
2022-07-30T14:30:42.663Z,4.77
2022-07-30T14:33:09.930Z,4.53
2022-07-30T14:35:37.127Z,4.50
2022-07-30T14:38:04.094Z,4.17
2022-07-30T14:40:30.994Z,4.10
2022-07-30T14:42:58.115Z,4.53
2022-07-30T14:45:28.605Z,4.40
2022-07-30T14:47:56.398Z,3.80
2022-07-30T14:50:23.385Z,4.13
2022-07-30T14:52:50.557Z,3.30
2022-07-30T14:55:17.632Z,3.77
2022-07-30T14:57:44.537Z,3.53
2022-07-30T15:00:11.990Z,3.60
2022-07-30T15:02:40.813Z,3.40
2022-07-30T15:05:09.102Z,3.40
2022-07-30T15:07:36.024Z,3.57
2022-07-30T15:10:03.437Z,3.10
2022-07-30T15:12:30.358Z,3.13
2022-07-30T15:14:57.339Z,3.00
2022-07-30T15:17:24.651Z,3.10
2022-07-30T15:19:51.720Z,3.63
2022-07-30T15:22:20.071Z,3.20
2022-07-30T15:24:48.434Z,3.20
2022-07-30T15:27:15.735Z,3.10
2022-07-30T15:29:42.999Z,3.13
2022-07-30T15:32:09.974Z,2.87
2022-07-30T15:34:37.094Z,3.30
2022-07-30T15:37:05.610Z,3.10
2022-07-30T15:39:33.667Z,2.90
2022-07-30T15:42:02.452Z,3.10
2022-07-30T15:44:30.027Z,3.43
2022-07-30T15:46:57.048Z,3.30
2022-07-30T15:49:24.208Z,4.13
2022-07-30T15:51:51.882Z,3.20
2022-07-30T15:54:23.316Z,3.40
2022-07-30T15:56:53.759Z,3.30
2022-07-30T15:59:22.437Z,3.33
2022-07-30T16:01:49.578Z,3.60
2022-07-30T16:04:19.715Z,3.33
2022-07-30T16:06:48.018Z,3.70
2022-07-30T16:09:17.731Z,3.17
2022-07-30T16:11:44.597Z,3.20
2022-07-30T16:14:13.822Z,3.20
2022-07-30T16:16:40.818Z,3.00
2022-07-30T16:19:07.776Z,3.33
2022-07-30T16:21:35.961Z,3.10
2022-07-30T16:24:03.762Z,2.97
2022-07-30T16:26:31.199Z,2.97
2022-07-30T16:28:58.073Z,2.93
2022-07-30T16:31:24.933Z,3.00
2022-07-30T16:33:51.805Z,2.93
2022-07-30T16:36:18.655Z,2.80
2022-07-30T16:38:45.528Z,2.87
2022-07-30T16:41:13.606Z,2.60
2022-07-30T16:43:41.162Z,2.50
2022-07-30T16:46:08.373Z,2.67
2022-07-30T16:48:35.226Z,2.93
2022-07-30T16:51:02.678Z,3.17
2022-07-30T16:53:30.107Z,2.80
2022-07-30T16:55:58.418Z,2.87
2022-07-30T16:58:30.875Z,2.63
2022-07-30T17:00:58.702Z,2.70
2022-07-30T17:03:25.983Z,2.50
2022-07-30T17:05:53.021Z,2.50
2022-07-30T17:08:25.025Z,2.70
2022-07-30T17:10:53.461Z,2.70
2022-07-30T17:13:21.670Z,2.60
2022-07-30T17:15:48.661Z,2.90
2022-07-30T17:18:16.156Z,2.87
2022-07-30T17:20:43.862Z,3.00
2022-07-30T17:23:11.082Z,3.00
2022-07-30T17:25:37.901Z,3.03
2022-07-30T17:28:05.805Z,3.10
2022-07-30T17:30:32.776Z,2.77
2022-07-30T17:32:59.727Z,3.27
2022-07-30T17:35:26.686Z,3.13
2022-07-30T17:37:53.729Z,3.40
2022-07-30T17:40:28.621Z,3.13
2022-07-30T17:43:03.937Z,3.13
2022-07-30T17:45:35.694Z,3.03
2022-07-30T17:48:03.307Z,3.23
2022-07-30T17:50:31.408Z,3.13
2022-07-30T17:52:58.481Z,3.30
2022-07-30T17:55:28.187Z,2.90
2022-07-30T17:57:55.077Z,3.90
2022-07-30T18:00:22.799Z,3.50
2022-07-30T18:02:49.629Z,3.53
2022-07-30T18:05:16.474Z,3.30
2022-07-30T18:07:44.236Z,3.30
2022-07-30T18:10:12.441Z,3.20
2022-07-30T18:12:39.816Z,3.23
2022-07-30T18:15:19.468Z,3.00
2022-07-30T18:17:46.606Z,3.30
2022-07-30T18:20:14.074Z,3.27
2022-07-30T18:22:41.473Z,3.40
2022-07-30T18:25:19.151Z,3.30
2022-07-30T18:27:47.993Z,3.03
2022-07-30T18:30:16.028Z,3.20
2022-07-30T18:32:46.046Z,3.17
2022-07-30T18:35:14.670Z,3.60
2022-07-30T18:37:45.680Z,3.17
2022-07-30T18:40:19.455Z,3.10
2022-07-30T18:42:49.583Z,3.20
2022-07-30T18:45:17.060Z,2.80
2022-07-30T18:47:44.688Z,3.37
2022-07-30T18:50:14.232Z,3.43
2022-07-30T18:52:41.797Z,3.50
2022-07-30T18:55:11.415Z,3.30
2022-07-30T18:57:38.926Z,3.83
2022-07-30T19:00:08.819Z,3.47
2022-07-30T19:02:39.346Z,3.37
2022-07-30T19:05:08.407Z,3.60
2022-07-30T19:07:55.557Z,3.63
2022-07-30T19:10:23.510Z,3.60
2022-07-30T19:12:54.073Z,3.23
2022-07-30T19:15:21.012Z,3.73
2022-07-30T19:17:53.997Z,3.70
2022-07-30T19:20:23.210Z,3.80
2022-07-30T19:22:50.880Z,3.97
2022-07-30T19:25:21.049Z,3.67
2022-07-30T19:27:48.045Z,3.57
2022-07-30T19:30:15.418Z,3.63
2022-07-30T19:32:43.812Z,3.63
2022-07-30T19:35:13.518Z,3.73
2022-07-30T19:37:41.635Z,4.07
2022-07-30T19:40:09.050Z,3.70
2022-07-30T19:42:36.559Z,3.83
2022-07-30T19:47:56.881Z,4.00
2022-07-30T19:50:27.136Z,4.30
2022-07-30T19:52:54.848Z,3.70
2022-07-30T19:55:35.368Z,3.83
2022-07-30T19:58:16.336Z,3.83
2022-07-30T20:00:50.335Z,3.57
2022-07-30T20:03:25.684Z,3.50
2022-07-30T20:05:58.609Z,4.00
2022-07-30T20:08:27.620Z,3.57
2022-07-30T20:10:57.522Z,3.60
2022-07-30T20:13:45.408Z,3.87
2022-07-30T20:16:16.510Z,3.73
2022-07-30T20:18:46.268Z,3.80
2022-07-30T20:21:16.557Z,3.67
2022-07-30T20:23:44.856Z,3.80
2022-07-30T20:26:14.572Z,3.90
2022-07-30T20:28:45.639Z,3.80
2022-07-30T20:31:13.055Z,3.43
2022-07-30T20:33:40.506Z,3.60
2022-07-30T20:36:09.741Z,3.60
2022-07-30T20:38:38.933Z,3.80
2022-07-30T20:41:10.137Z,3.37
2022-07-30T20:43:45.902Z,3.70
2022-07-30T20:46:20.314Z,3.50
2022-07-30T20:48:47.254Z,3.80
2022-07-30T20:51:15.157Z,4.00
2022-07-30T20:53:45.576Z,4.53
2022-07-30T20:56:13.564Z,4.60
2022-07-30T20:58:41.863Z,4.90
2022-07-30T21:01:15.801Z,4.63
2022-07-30T21:03:48.239Z,4.87
2022-07-30T21:06:16.496Z,4.90
2022-07-30T21:08:43.489Z,4.43
2022-07-30T21:11:10.397Z,4.10
2022-07-30T21:13:39.704Z,4.40
2022-07-30T21:16:15.603Z,4.40
2022-07-30T21:18:49.804Z,4.87
2022-07-30T21:21:28.980Z,5.07
2022-07-30T21:24:05.675Z,5.10
2022-07-30T21:26:35.979Z,5.23
2022-07-30T21:29:05.713Z,5.37
2022-07-30T21:32:01.571Z,5.70
2022-07-30T21:34:20.103Z,6.07
2022-07-30T21:36:53.421Z,5.70
2022-07-30T21:39:20.316Z,5.47
2022-07-30T21:41:56.763Z,5.50
2022-07-30T21:44:24.511Z,5.47
2022-07-30T21:46:52.377Z,5.23
2022-07-30T21:49:20.597Z,5.43
2022-07-30T21:51:47.747Z,5.53
2022-07-30T21:54:17.067Z,5.50
2022-07-30T21:56:58.040Z,5.50
2022-07-30T21:59:25.414Z,5.40
2022-07-30T22:01:55.986Z,5.63
2022-07-30T22:04:24.411Z,5.37
2022-07-30T22:06:54.603Z,6.03
2022-07-30T22:09:34.073Z,7.20
2022-07-30T22:12:09.874Z,5.43
2022-07-30T22:14:39.360Z,5.50
2022-07-30T22:17:22.389Z,5.30
2022-07-30T22:19:50.028Z,5.30
2022-07-30T22:22:27.177Z,5.50
2022-07-30T22:24:57.341Z,5.90
2022-07-30T22:27:25.559Z,5.23
2022-07-30T22:29:55.869Z,5.33
2022-07-30T22:32:26.363Z,5.30
2022-07-30T22:34:54.670Z,5.30
2022-07-30T22:37:25.279Z,5.20
2022-07-30T22:40:01.998Z,4.90
2022-07-30T22:42:29.447Z,5.30
2022-07-30T22:44:57.427Z,5.57
2022-07-30T22:47:50.946Z,5.40
2022-07-30T22:50:11.681Z,4.93
2022-07-30T22:52:40.058Z,5.50
2022-07-30T22:55:16.010Z,5.50
2022-07-30T22:57:49.520Z,5.90
2022-07-30T23:00:28.164Z,5.60
2022-07-30T23:02:56.773Z,5.80
2022-07-30T23:05:27.255Z,6.47
2022-07-30T23:07:55.011Z,6.17
2022-07-30T23:10:23.013Z,6.83
2022-07-30T23:12:15.037Z,3.83
2022-07-30T23:12:53.692Z,5.97
2022-07-30T23:15:21.642Z,6.10
2022-07-30T23:17:48.507Z,6.03
2022-07-30T23:20:18.122Z,6.53
2022-07-30T23:22:44.983Z,6.27
2022-07-30T23:25:12.938Z,6.40
2022-07-30T23:27:40.513Z,6.40
2022-07-30T23:30:09.193Z,5.90
2022-07-30T23:32:36.742Z,6.23
2022-07-30T23:35:04.465Z,6.27
2022-07-30T23:37:48.072Z,6.73
2022-07-30T23:40:19.487Z,5.73
2022-07-30T23:42:47.776Z,5.80
2022-07-30T23:45:14.854Z,6.13
2022-07-30T23:48:02.106Z,5.80
2022-07-30T23:50:29.411Z,6.20
2022-07-30T23:52:56.343Z,6.17
2022-07-30T23:55:23.328Z,6.10
2022-07-30T23:57:50.191Z,6.37
